sensor_id;sensor_type;location;lat;lon;timestamp;P1;durP1;ratioP1;P2;durP2;ratioP2
11747;SDS011;5931;48.832;9.072;2023-04-29T00:01:24;4.30;;;2.80;;
11747;SDS011;5931;48.832;9.072;2023-04-29T00:03:50;4.20;;;3.30;;
11747;SDS011;5931;48.832;9.072;2023-04-29T00:06:17;4.23;;;3.40;;
11747;SDS011;5931;48.832;9.072;2023-04-29T00:08:42;3.47;;;3.00;;
11747;SDS011;5931;48.832;9.072;2023-04-29T00:11:08;3.67;;;3.27;;
11747;SDS011;5931;48.832;9.072;2023-04-29T00:13:35;3.77;;;3.47;;
11747;SDS011;5931;48.832;9.072;2023-04-29T00:16:01;3.53;;;3.00;;
11747;SDS011;5931;48.832;9.072;2023-04-29T00:18:27;5.03;;;3.20;;
11747;SDS011;5931;48.832;9.072;2023-04-29T00:20:52;3.77;;;3.33;;
11747;SDS011;5931;48.832;9.072;2023-04-29T00:23:18;3.17;;;2.83;;
11747;SDS011;5931;48.832;9.072;2023-04-29T00:25:43;5.50;;;3.20;;
11747;SDS011;5931;48.832;9.072;2023-04-29T00:28:09;3.37;;;3.03;;
11747;SDS011;5931;48.832;9.072;2023-04-29T00:30:35;3.20;;;2.90;;
11747;SDS011;5931;48.832;9.072;2023-04-29T00:33:01;9.17;;;3.30;;
11747;SDS011;5931;48.832;9.072;2023-04-29T00:35:27;3.80;;;3.33;;
11747;SDS011;5931;48.832;9.072;2023-04-29T00:37:53;3.77;;;3.43;;
11747;SDS011;5931;48.832;9.072;2023-04-29T00:40:19;6.03;;;3.60;;
11747;SDS011;5931;48.832;9.072;2023-04-29T00:42:45;4.20;;;3.20;;
11747;SDS011;5931;48.832;9.072;2023-04-29T00:45:10;3.30;;;3.00;;
11747;SDS011;5931;48.832;9.072;2023-04-29T00:47:36;3.53;;;2.60;;
11747;SDS011;5931;48.832;9.072;2023-04-29T00:50:03;4.10;;;3.17;;
11747;SDS011;5931;48.832;9.072;2023-04-29T00:52:30;5.47;;;3.50;;
11747;SDS011;5931;48.832;9.072;2023-04-29T00:54:56;4.70;;;3.10;;
11747;SDS011;5931;48.832;9.072;2023-04-29T00:57:24;3.33;;;3.03;;
11747;SDS011;5931;48.832;9.072;2023-04-29T00:59:51;5.97;;;3.50;;
11747;SDS011;5931;48.832;9.072;2023-04-29T01:02:17;3.60;;;2.70;;
11747;SDS011;5931;48.832;9.072;2023-04-29T01:04:43;4.83;;;3.03;;
11747;SDS011;5931;48.832;9.072;2023-04-29T01:07:16;3.40;;;2.80;;
11747;SDS011;5931;48.832;9.072;2023-04-29T01:10:05;3.60;;;3.30;;
11747;SDS011;5931;48.832;9.072;2023-04-29T01:20:32;3.40;;;3.10;;
11747;SDS011;5931;48.832;9.072;2023-04-29T01:22:59;7.37;;;3.33;;
11747;SDS011;5931;48.832;9.072;2023-04-29T01:25:25;3.20;;;2.87;;
11747;SDS011;5931;48.832;9.072;2023-04-29T01:34:05;5.60;;;3.70;;
11747;SDS011;5931;48.832;9.072;2023-04-29T01:39:36;4.40;;;3.50;;
11747;SDS011;5931;48.832;9.072;2023-04-29T01:44:52;4.70;;;3.80;;
11747;SDS011;5931;48.832;9.072;2023-04-29T01:47:21;4.53;;;3.63;;
11747;SDS011;5931;48.832;9.072;2023-04-29T01:49:51;4.23;;;3.30;;
11747;SDS011;5931;48.832;9.072;2023-04-29T01:52:17;4.83;;;3.70;;
11747;SDS011;5931;48.832;9.072;2023-04-29T01:54:50;4.20;;;3.47;;
11747;SDS011;5931;48.832;9.072;2023-04-29T01:57:17;5.77;;;3.93;;
11747;SDS011;5931;48.832;9.072;2023-04-29T02:00:06;5.60;;;4.00;;
11747;SDS011;5931;48.832;9.072;2023-04-29T02:02:40;4.53;;;3.57;;
11747;SDS011;5931;48.832;9.072;2023-04-29T02:05:14;5.80;;;4.33;;
11747;SDS011;5931;48.832;9.072;2023-04-29T02:07:44;7.07;;;4.17;;
11747;SDS011;5931;48.832;9.072;2023-04-29T02:10:10;5.50;;;3.60;;
11747;SDS011;5931;48.832;9.072;2023-04-29T02:12:39;4.20;;;3.60;;
11747;SDS011;5931;48.832;9.072;2023-04-29T02:15:05;5.20;;;4.00;;
11747;SDS011;5931;48.832;9.072;2023-04-29T02:17:32;3.97;;;3.43;;
11747;SDS011;5931;48.832;9.072;2023-04-29T02:19:58;6.82;;;3.40;;
11747;SDS011;5931;48.832;9.072;2023-04-29T02:22:24;4.93;;;4.17;;
11747;SDS011;5931;48.832;9.072;2023-04-29T02:24:49;4.60;;;3.20;;
11747;SDS011;5931;48.832;9.072;2023-04-29T02:27:16;5.40;;;3.90;;
11747;SDS011;5931;48.832;9.072;2023-04-29T02:29:42;4.27;;;3.13;;
11747;SDS011;5931;48.832;9.072;2023-04-29T02:32:08;4.83;;;3.20;;
11747;SDS011;5931;48.832;9.072;2023-04-29T02:34:36;13.00;;;4.50;;
11747;SDS011;5931;48.832;9.072;2023-04-29T02:37:02;4.17;;;3.77;;
11747;SDS011;5931;48.832;9.072;2023-04-29T02:39:28;6.30;;;3.70;;
11747;SDS011;5931;48.832;9.072;2023-04-29T02:41:54;4.90;;;4.00;;
11747;SDS011;5931;48.832;9.072;2023-04-29T02:44:20;5.47;;;4.07;;
11747;SDS011;5931;48.832;9.072;2023-04-29T02:46:46;5.10;;;3.87;;
11747;SDS011;5931;48.832;9.072;2023-04-29T02:49:12;4.60;;;3.50;;
11747;SDS011;5931;48.832;9.072;2023-04-29T02:51:38;4.30;;;3.30;;
11747;SDS011;5931;48.832;9.072;2023-04-29T02:54:04;3.90;;;3.10;;
11747;SDS011;5931;48.832;9.072;2023-04-29T02:56:30;4.80;;;3.77;;
11747;SDS011;5931;48.832;9.072;2023-04-29T02:58:56;4.53;;;3.50;;
11747;SDS011;5931;48.832;9.072;2023-04-29T03:01:22;5.67;;;4.10;;
11747;SDS011;5931;48.832;9.072;2023-04-29T03:03:48;4.03;;;3.20;;
11747;SDS011;5931;48.832;9.072;2023-04-29T03:06:14;4.83;;;3.80;;
11747;SDS011;5931;48.832;9.072;2023-04-29T03:08:40;5.87;;;3.70;;
11747;SDS011;5931;48.832;9.072;2023-04-29T03:11:06;4.27;;;3.60;;
11747;SDS011;5931;48.832;9.072;2023-04-29T03:13:31;5.70;;;3.30;;
11747;SDS011;5931;48.832;9.072;2023-04-29T03:15:57;4.07;;;3.67;;
11747;SDS011;5931;48.832;9.072;2023-04-29T03:18:24;4.63;;;3.80;;
11747;SDS011;5931;48.832;9.072;2023-04-29T03:20:50;4.67;;;3.07;;
11747;SDS011;5931;48.832;9.072;2023-04-29T03:23:16;3.47;;;3.17;;
11747;SDS011;5931;48.832;9.072;2023-04-29T03:25:42;4.80;;;3.83;;
11747;SDS011;5931;48.832;9.072;2023-04-29T03:28:07;4.07;;;3.67;;
11747;SDS011;5931;48.832;9.072;2023-04-29T03:30:33;4.23;;;3.43;;
11747;SDS011;5931;48.832;9.072;2023-04-29T03:32:59;4.90;;;3.50;;
11747;SDS011;5931;48.832;9.072;2023-04-29T03:35:26;9.13;;;3.97;;
11747;SDS011;5931;48.832;9.072;2023-04-29T03:38:21;3.90;;;3.10;;
11747;SDS011;5931;48.832;9.072;2023-04-29T03:40:47;9.50;;;4.37;;
11747;SDS011;5931;48.832;9.072;2023-04-29T03:43:15;6.83;;;3.70;;
11747;SDS011;5931;48.832;9.072;2023-04-29T03:45:41;4.47;;;3.47;;
11747;SDS011;5931;48.832;9.072;2023-04-29T03:48:07;6.20;;;4.63;;
11747;SDS011;5931;48.832;9.072;2023-04-29T03:50:33;6.53;;;4.23;;
11747;SDS011;5931;48.832;9.072;2023-04-29T03:52:59;5.10;;;3.50;;
11747;SDS011;5931;48.832;9.072;2023-04-29T03:55:24;14.83;;;4.70;;
11747;SDS011;5931;48.832;9.072;2023-04-29T03:57:50;4.83;;;3.80;;
11747;SDS011;5931;48.832;9.072;2023-04-29T04:00:17;7.00;;;4.07;;
11747;SDS011;5931;48.832;9.072;2023-04-29T04:02:45;6.17;;;3.87;;
11747;SDS011;5931;48.832;9.072;2023-04-29T04:05:12;4.77;;;4.10;;
11747;SDS011;5931;48.832;9.072;2023-04-29T04:07:41;4.47;;;3.60;;
11747;SDS011;5931;48.832;9.072;2023-04-29T04:10:41;4.20;;;3.70;;
11747;SDS011;5931;48.832;9.072;2023-04-29T04:13:31;7.20;;;4.50;;
11747;SDS011;5931;48.832;9.072;2023-04-29T04:15:57;10.60;;;5.33;;
11747;SDS011;5931;48.832;9.072;2023-04-29T04:18:23;8.17;;;5.13;;
11747;SDS011;5931;48.832;9.072;2023-04-29T04:20:49;7.90;;;4.80;;
11747;SDS011;5931;48.832;9.072;2023-04-29T04:23:14;4.47;;;3.97;;
11747;SDS011;5931;48.832;9.072;2023-04-29T04:25:45;5.07;;;3.87;;
11747;SDS011;5931;48.832;9.072;2023-04-29T04:28:43;6.60;;;4.63;;
11747;SDS011;5931;48.832;9.072;2023-04-29T04:31:15;4.27;;;3.10;;
11747;SDS011;5931;48.832;9.072;2023-04-29T04:33:41;5.87;;;3.90;;
11747;SDS011;5931;48.832;9.072;2023-04-29T04:36:07;5.90;;;4.07;;
11747;SDS011;5931;48.832;9.072;2023-04-29T04:38:33;6.10;;;4.10;;
11747;SDS011;5931;48.832;9.072;2023-04-29T04:41:05;5.53;;;4.37;;
11747;SDS011;5931;48.832;9.072;2023-04-29T04:43:36;7.60;;;4.90;;
11747;SDS011;5931;48.832;9.072;2023-04-29T04:46:10;7.13;;;4.70;;
11747;SDS011;5931;48.832;9.072;2023-04-29T04:48:51;9.00;;;5.47;;
11747;SDS011;5931;48.832;9.072;2023-04-29T04:51:18;7.77;;;4.87;;
11747;SDS011;5931;48.832;9.072;2023-04-29T04:53:43;6.00;;;4.73;;
11747;SDS011;5931;48.832;9.072;2023-04-29T04:56:17;6.23;;;4.80;;
11747;SDS011;5931;48.832;9.072;2023-04-29T04:58:42;6.30;;;4.90;;
11747;SDS011;5931;48.832;9.072;2023-04-29T05:01:08;11.80;;;5.43;;
11747;SDS011;5931;48.832;9.072;2023-04-29T05:03:34;7.27;;;5.80;;
11747;SDS011;5931;48.832;9.072;2023-04-29T05:06:00;9.90;;;5.33;;
11747;SDS011;5931;48.832;9.072;2023-04-29T05:08:26;10.40;;;5.70;;
11747;SDS011;5931;48.832;9.072;2023-04-29T05:10:54;7.60;;;5.37;;
11747;SDS011;5931;48.832;9.072;2023-04-29T05:13:20;6.40;;;4.97;;
11747;SDS011;5931;48.832;9.072;2023-04-29T05:15:46;9.50;;;5.20;;
11747;SDS011;5931;48.832;9.072;2023-04-29T05:18:17;10.43;;;6.70;;
11747;SDS011;5931;48.832;9.072;2023-04-29T05:20:46;6.13;;;4.83;;
11747;SDS011;5931;48.832;9.072;2023-04-29T05:23:11;6.60;;;5.20;;
11747;SDS011;5931;48.832;9.072;2023-04-29T05:25:38;7.63;;;5.13;;
11747;SDS011;5931;48.832;9.072;2023-04-29T05:28:04;7.77;;;5.70;;
11747;SDS011;5931;48.832;9.072;2023-04-29T05:30:33;7.80;;;5.73;;
11747;SDS011;5931;48.832;9.072;2023-04-29T05:32:59;7.80;;;5.47;;
11747;SDS011;5931;48.832;9.072;2023-04-29T05:35:25;9.37;;;6.43;;
11747;SDS011;5931;48.832;9.072;2023-04-29T05:37:53;7.07;;;5.10;;
11747;SDS011;5931;48.832;9.072;2023-04-29T05:40:38;9.07;;;5.70;;
11747;SDS011;5931;48.832;9.072;2023-04-29T05:43:23;11.50;;;5.90;;
11747;SDS011;5931;48.832;9.072;2023-04-29T05:45:50;7.95;;;6.07;;
11747;SDS011;5931;48.832;9.072;2023-04-29T05:48:16;8.70;;;6.13;;
11747;SDS011;5931;48.832;9.072;2023-04-29T05:50:42;7.13;;;4.87;;
11747;SDS011;5931;48.832;9.072;2023-04-29T05:53:09;8.07;;;5.77;;
11747;SDS011;5931;48.832;9.072;2023-04-29T05:55:36;10.70;;;5.77;;
11747;SDS011;5931;48.832;9.072;2023-04-29T05:58:01;7.33;;;5.57;;
11747;SDS011;5931;48.832;9.072;2023-04-29T06:00:27;9.20;;;6.00;;
11747;SDS011;5931;48.832;9.072;2023-04-29T06:02:59;7.67;;;5.97;;
11747;SDS011;5931;48.832;9.072;2023-04-29T06:05:26;8.60;;;5.87;;
11747;SDS011;5931;48.832;9.072;2023-04-29T06:08:06;8.20;;;6.37;;
11747;SDS011;5931;48.832;9.072;2023-04-29T06:10:52;9.53;;;6.10;;
11747;SDS011;5931;48.832;9.072;2023-04-29T06:13:18;9.83;;;6.70;;
11747;SDS011;5931;48.832;9.072;2023-04-29T06:15:43;11.17;;;6.40;;
11747;SDS011;5931;48.832;9.072;2023-04-29T06:18:09;7.67;;;6.67;;
11747;SDS011;5931;48.832;9.072;2023-04-29T06:20:35;9.10;;;6.33;;
11747;SDS011;5931;48.832;9.072;2023-04-29T06:23:00;7.33;;;6.27;;
11747;SDS011;5931;48.832;9.072;2023-04-29T06:25:27;7.13;;;5.40;;
11747;SDS011;5931;48.832;9.072;2023-04-29T06:27:53;7.57;;;5.93;;
11747;SDS011;5931;48.832;9.072;2023-04-29T06:30:23;5.60;;;4.83;;
11747;SDS011;5931;48.832;9.072;2023-04-29T06:32:49;5.50;;;4.53;;
11747;SDS011;5931;48.832;9.072;2023-04-29T06:35:14;6.60;;;4.63;;
11747;SDS011;5931;48.832;9.072;2023-04-29T06:37:58;3.37;;;3.00;;
11747;SDS011;5931;48.832;9.072;2023-04-29T06:40:44;3.70;;;3.40;;
11747;SDS011;5931;48.832;9.072;2023-04-29T06:43:42;3.47;;;2.30;;
11747;SDS011;5931;48.832;9.072;2023-04-29T06:46:32;2.63;;;2.33;;
11747;SDS011;5931;48.832;9.072;2023-04-29T06:49:33;7.83;;;2.53;;
11747;SDS011;5931;48.832;9.072;2023-04-29T06:51:59;3.23;;;2.67;;
11747;SDS011;5931;48.832;9.072;2023-04-29T06:54:26;3.27;;;2.33;;
11747;SDS011;5931;48.832;9.072;2023-04-29T06:56:52;3.37;;;2.60;;
11747;SDS011;5931;48.832;9.072;2023-04-29T06:59:18;3.03;;;2.40;;
11747;SDS011;5931;48.832;9.072;2023-04-29T07:01:44;2.57;;;2.37;;
11747;SDS011;5931;48.832;9.072;2023-04-29T07:04:10;3.80;;;2.43;;
11747;SDS011;5931;48.832;9.072;2023-04-29T07:06:36;2.90;;;2.50;;
11747;SDS011;5931;48.832;9.072;2023-04-29T07:09:01;4.10;;;2.37;;
11747;SDS011;5931;48.832;9.072;2023-04-29T07:11:27;2.93;;;2.40;;
11747;SDS011;5931;48.832;9.072;2023-04-29T07:13:53;2.80;;;2.60;;
11747;SDS011;5931;48.832;9.072;2023-04-29T07:16:19;2.23;;;2.03;;
11747;SDS011;5931;48.832;9.072;2023-04-29T07:18:50;2.90;;;2.30;;
11747;SDS011;5931;48.832;9.072;2023-04-29T07:21:16;3.07;;;2.30;;
11747;SDS011;5931;48.832;9.072;2023-04-29T07:23:42;3.80;;;2.50;;
11747;SDS011;5931;48.832;9.072;2023-04-29T07:26:11;2.47;;;2.27;;
11747;SDS011;5931;48.832;9.072;2023-04-29T07:28:38;2.23;;;1.77;;
11747;SDS011;5931;48.832;9.072;2023-04-29T07:31:04;2.40;;;1.80;;
11747;SDS011;5931;48.832;9.072;2023-04-29T07:33:31;2.43;;;2.20;;
11747;SDS011;5931;48.832;9.072;2023-04-29T07:35:58;2.70;;;2.30;;
11747;SDS011;5931;48.832;9.072;2023-04-29T07:38:24;2.30;;;2.10;;
11747;SDS011;5931;48.832;9.072;2023-04-29T07:40:50;2.23;;;2.00;;
11747;SDS011;5931;48.832;9.072;2023-04-29T07:43:17;3.03;;;2.73;;
11747;SDS011;5931;48.832;9.072;2023-04-29T07:45:42;2.83;;;2.23;;
11747;SDS011;5931;48.832;9.072;2023-04-29T07:48:08;3.00;;;2.03;;
11747;SDS011;5931;48.832;9.072;2023-04-29T07:53:02;3.07;;;2.10;;
11747;SDS011;5931;48.832;9.072;2023-04-29T07:55:29;2.93;;;2.63;;
11747;SDS011;5931;48.832;9.072;2023-04-29T07:57:56;3.10;;;2.80;;
11747;SDS011;5931;48.832;9.072;2023-04-29T08:00:22;2.00;;;1.80;;
11747;SDS011;5931;48.832;9.072;2023-04-29T08:02:51;2.80;;;2.33;;
11747;SDS011;5931;48.832;9.072;2023-04-29T08:05:18;2.27;;;1.90;;
11747;SDS011;5931;48.832;9.072;2023-04-29T08:07:47;2.27;;;2.03;;
11747;SDS011;5931;48.832;9.072;2023-04-29T08:10:13;2.97;;;2.67;;
11747;SDS011;5931;48.832;9.072;2023-04-29T08:12:39;3.30;;;1.90;;
11747;SDS011;5931;48.832;9.072;2023-04-29T08:15:06;2.80;;;2.50;;
11747;SDS011;5931;48.832;9.072;2023-04-29T08:17:32;2.20;;;2.00;;
11747;SDS011;5931;48.832;9.072;2023-04-29T08:19:58;2.23;;;2.03;;
11747;SDS011;5931;48.832;9.072;2023-04-29T08:22:23;3.13;;;2.37;;
11747;SDS011;5931;48.832;9.072;2023-04-29T08:24:49;2.77;;;2.50;;
11747;SDS011;5931;48.832;9.072;2023-04-29T08:27:15;3.70;;;2.80;;
11747;SDS011;5931;48.832;9.072;2023-04-29T08:29:41;2.53;;;2.30;;
11747;SDS011;5931;48.832;9.072;2023-04-29T08:32:07;3.10;;;2.80;;
11747;SDS011;5931;48.832;9.072;2023-04-29T08:34:32;3.50;;;2.20;;
11747;SDS011;5931;48.832;9.072;2023-04-29T08:37:00;3.20;;;2.80;;
11747;SDS011;5931;48.832;9.072;2023-04-29T08:39:29;3.60;;;2.60;;
11747;SDS011;5931;48.832;9.072;2023-04-29T08:41:58;3.67;;;2.60;;
11747;SDS011;5931;48.832;9.072;2023-04-29T08:44:31;4.40;;;3.03;;
11747;SDS011;5931;48.832;9.072;2023-04-29T08:46:58;4.00;;;3.20;;
11747;SDS011;5931;48.832;9.072;2023-04-29T08:49:26;3.20;;;2.90;;
11747;SDS011;5931;48.832;9.072;2023-04-29T08:51:57;3.73;;;3.20;;
11747;SDS011;5931;48.832;9.072;2023-04-29T08:54:23;4.07;;;3.37;;
11747;SDS011;5931;48.832;9.072;2023-04-29T08:56:49;2.70;;;2.50;;
11747;SDS011;5931;48.832;9.072;2023-04-29T08:59:16;3.60;;;2.83;;
11747;SDS011;5931;48.832;9.072;2023-04-29T09:01:44;4.03;;;3.17;;
11747;SDS011;5931;48.832;9.072;2023-04-29T09:07:21;3.87;;;2.80;;
11747;SDS011;5931;48.832;9.072;2023-04-29T09:09:47;2.80;;;2.50;;
11747;SDS011;5931;48.832;9.072;2023-04-29T09:12:15;3.67;;;2.63;;
11747;SDS011;5931;48.832;9.072;2023-04-29T09:14:42;3.70;;;2.83;;
11747;SDS011;5931;48.832;9.072;2023-04-29T09:17:08;2.70;;;2.50;;
11747;SDS011;5931;48.832;9.072;2023-04-29T09:19:34;2.60;;;2.40;;
11747;SDS011;5931;48.832;9.072;2023-04-29T09:22:01;2.80;;;2.60;;
11747;SDS011;5931;48.832;9.072;2023-04-29T09:24:28;3.07;;;2.70;;
11747;SDS011;5931;48.832;9.072;2023-04-29T09:26:55;3.28;;;2.35;;
11747;SDS011;5931;48.832;9.072;2023-04-29T09:29:22;2.67;;;2.47;;
11747;SDS011;5931;48.832;9.072;2023-04-29T09:31:48;3.90;;;2.50;;
11747;SDS011;5931;48.832;9.072;2023-04-29T09:34:15;3.30;;;2.80;;
11747;SDS011;5931;48.832;9.072;2023-04-29T09:36:45;3.10;;;2.50;;
11747;SDS011;5931;48.832;9.072;2023-04-29T09:39:13;3.27;;;2.10;;
11747;SDS011;5931;48.832;9.072;2023-04-29T09:44:17;2.60;;;2.27;;
11747;SDS011;5931;48.832;9.072;2023-04-29T09:49:30;3.03;;;2.70;;
11747;SDS011;5931;48.832;9.072;2023-04-29T09:52:00;2.33;;;1.97;;
11747;SDS011;5931;48.832;9.072;2023-04-29T09:54:28;3.73;;;2.10;;
11747;SDS011;5931;48.832;9.072;2023-04-29T09:56:56;2.53;;;2.33;;
11747;SDS011;5931;48.832;9.072;2023-04-29T09:59:22;2.70;;;2.07;;
11747;SDS011;5931;48.832;9.072;2023-04-29T10:01:49;3.03;;;2.37;;
11747;SDS011;5931;48.832;9.072;2023-04-29T10:04:18;2.60;;;2.03;;
11747;SDS011;5931;48.832;9.072;2023-04-29T10:06:49;2.10;;;1.70;;
11747;SDS011;5931;48.832;9.072;2023-04-29T10:09:19;2.20;;;1.53;;
11747;SDS011;5931;48.832;9.072;2023-04-29T10:11:47;3.00;;;2.30;;
11747;SDS011;5931;48.832;9.072;2023-04-29T10:14:15;3.60;;;2.40;;
11747;SDS011;5931;48.832;9.072;2023-04-29T10:19:37;2.93;;;2.00;;
11747;SDS011;5931;48.832;9.072;2023-04-29T10:22:08;2.33;;;2.13;;
11747;SDS011;5931;48.832;9.072;2023-04-29T10:24:36;2.77;;;2.57;;
11747;SDS011;5931;48.832;9.072;2023-04-29T10:27:06;3.27;;;2.43;;
11747;SDS011;5931;48.832;9.072;2023-04-29T10:29:36;3.40;;;2.50;;
11747;SDS011;5931;48.832;9.072;2023-04-29T10:32:06;2.50;;;2.30;;
11747;SDS011;5931;48.832;9.072;2023-04-29T10:34:33;3.33;;;2.40;;
11747;SDS011;5931;48.832;9.072;2023-04-29T10:37:02;2.70;;;2.30;;
11747;SDS011;5931;48.832;9.072;2023-04-29T10:39:31;2.77;;;2.30;;
11747;SDS011;5931;48.832;9.072;2023-04-29T10:42:04;3.30;;;2.23;;
11747;SDS011;5931;48.832;9.072;2023-04-29T10:50:28;2.87;;;2.57;;
11747;SDS011;5931;48.832;9.072;2023-04-29T10:53:00;3.20;;;2.73;;
11747;SDS011;5931;48.832;9.072;2023-04-29T10:55:27;2.87;;;2.57;;
11747;SDS011;5931;48.832;9.072;2023-04-29T10:57:53;3.00;;;2.50;;
11747;SDS011;5931;48.832;9.072;2023-04-29T11:00:21;2.20;;;2.00;;
11747;SDS011;5931;48.832;9.072;2023-04-29T11:02:52;3.33;;;2.00;;
11747;SDS011;5931;48.832;9.072;2023-04-29T11:05:18;3.03;;;2.30;;
11747;SDS011;5931;48.832;9.072;2023-04-29T11:08:10;2.07;;;1.70;;
11747;SDS011;5931;48.832;9.072;2023-04-29T11:10:40;3.67;;;2.67;;
11747;SDS011;5931;48.832;9.072;2023-04-29T11:16:08;2.83;;;2.17;;
11747;SDS011;5931;48.832;9.072;2023-04-29T11:18:36;3.03;;;2.43;;
11747;SDS011;5931;48.832;9.072;2023-04-29T11:21:21;4.37;;;2.40;;
11747;SDS011;5931;48.832;9.072;2023-04-29T11:23:49;3.10;;;1.80;;
11747;SDS011;5931;48.832;9.072;2023-04-29T11:26:18;3.70;;;2.10;;
11747;SDS011;5931;48.832;9.072;2023-04-29T11:28:45;2.97;;;2.50;;
11747;SDS011;5931;48.832;9.072;2023-04-29T11:31:12;2.57;;;2.00;;
11747;SDS011;5931;48.832;9.072;2023-04-29T11:33:38;7.90;;;2.83;;
11747;SDS011;5931;48.832;9.072;2023-04-29T11:36:03;3.13;;;2.80;;
11747;SDS011;5931;48.832;9.072;2023-04-29T11:38:29;3.83;;;3.50;;
11747;SDS011;5931;48.832;9.072;2023-04-29T11:40:55;5.13;;;3.13;;
11747;SDS011;5931;48.832;9.072;2023-04-29T11:43:22;4.57;;;3.20;;
11747;SDS011;5931;48.832;9.072;2023-04-29T11:45:49;6.83;;;3.73;;
11747;SDS011;5931;48.832;9.072;2023-04-29T11:48:19;6.20;;;3.70;;
11747;SDS011;5931;48.832;9.072;2023-04-29T11:50:46;4.67;;;3.53;;
11747;SDS011;5931;48.832;9.072;2023-04-29T11:53:13;4.67;;;3.57;;
11747;SDS011;5931;48.832;9.072;2023-04-29T11:55:43;6.57;;;4.20;;
11747;SDS011;5931;48.832;9.072;2023-04-29T11:58:09;5.30;;;3.97;;
11747;SDS011;5931;48.832;9.072;2023-04-29T12:00:35;6.00;;;4.00;;
11747;SDS011;5931;48.832;9.072;2023-04-29T12:03:06;4.37;;;3.90;;
11747;SDS011;5931;48.832;9.072;2023-04-29T12:05:38;6.20;;;4.33;;
11747;SDS011;5931;48.832;9.072;2023-04-29T12:08:05;5.13;;;4.07;;
11747;SDS011;5931;48.832;9.072;2023-04-29T12:10:34;6.37;;;4.13;;
11747;SDS011;5931;48.832;9.072;2023-04-29T12:13:00;5.73;;;4.03;;
11747;SDS011;5931;48.832;9.072;2023-04-29T12:15:27;5.17;;;4.00;;
11747;SDS011;5931;48.832;9.072;2023-04-29T12:17:54;5.60;;;3.77;;
11747;SDS011;5931;48.832;9.072;2023-04-29T12:20:20;6.50;;;4.70;;
11747;SDS011;5931;48.832;9.072;2023-04-29T12:22:46;5.57;;;4.37;;
11747;SDS011;5931;48.832;9.072;2023-04-29T12:25:11;7.47;;;4.03;;
11747;SDS011;5931;48.832;9.072;2023-04-29T12:27:40;6.50;;;4.70;;
11747;SDS011;5931;48.832;9.072;2023-04-29T12:30:07;5.40;;;4.13;;
11747;SDS011;5931;48.832;9.072;2023-04-29T12:32:34;7.73;;;4.37;;
11747;SDS011;5931;48.832;9.072;2023-04-29T12:35:00;5.47;;;3.73;;
11747;SDS011;5931;48.832;9.072;2023-04-29T12:37:26;6.07;;;3.77;;
11747;SDS011;5931;48.832;9.072;2023-04-29T12:39:53;6.50;;;4.37;;
11747;SDS011;5931;48.832;9.072;2023-04-29T12:42:19;5.40;;;4.00;;
11747;SDS011;5931;48.832;9.072;2023-04-29T12:44:45;5.83;;;4.17;;
11747;SDS011;5931;48.832;9.072;2023-04-29T12:47:12;7.90;;;4.40;;
11747;SDS011;5931;48.832;9.072;2023-04-29T12:49:43;7.93;;;5.10;;
11747;SDS011;5931;48.832;9.072;2023-04-29T12:52:09;7.70;;;4.33;;
11747;SDS011;5931;48.832;9.072;2023-04-29T12:54:39;7.10;;;4.57;;
11747;SDS011;5931;48.832;9.072;2023-04-29T12:57:06;7.70;;;5.30;;
11747;SDS011;5931;48.832;9.072;2023-04-29T12:59:33;8.30;;;5.20;;
11747;SDS011;5931;48.832;9.072;2023-04-29T13:01:58;6.00;;;3.77;;
11747;SDS011;5931;48.832;9.072;2023-04-29T13:04:24;4.50;;;3.87;;
11747;SDS011;5931;48.832;9.072;2023-04-29T13:06:50;9.07;;;4.57;;
11747;SDS011;5931;48.832;9.072;2023-04-29T13:09:22;6.23;;;4.70;;
11747;SDS011;5931;48.832;9.072;2023-04-29T13:11:47;8.53;;;4.63;;
11747;SDS011;5931;48.832;9.072;2023-04-29T13:14:13;7.57;;;4.70;;
11747;SDS011;5931;48.832;9.072;2023-04-29T13:16:39;10.43;;;4.90;;
11747;SDS011;5931;48.832;9.072;2023-04-29T13:19:04;5.37;;;4.13;;
11747;SDS011;5931;48.832;9.072;2023-04-29T13:21:31;7.67;;;4.57;;
11747;SDS011;5931;48.832;9.072;2023-04-29T13:23:56;6.10;;;4.67;;
11747;SDS011;5931;48.832;9.072;2023-04-29T13:26:22;9.53;;;4.80;;
11747;SDS011;5931;48.832;9.072;2023-04-29T13:28:49;6.40;;;4.33;;
11747;SDS011;5931;48.832;9.072;2023-04-29T13:31:16;9.07;;;4.40;;
11747;SDS011;5931;48.832;9.072;2023-04-29T13:33:41;10.47;;;4.70;;
11747;SDS011;5931;48.832;9.072;2023-04-29T13:36:08;8.77;;;4.23;;
11747;SDS011;5931;48.832;9.072;2023-04-29T13:38:34;6.83;;;5.07;;
11747;SDS011;5931;48.832;9.072;2023-04-29T13:40:59;7.63;;;4.83;;
11747;SDS011;5931;48.832;9.072;2023-04-29T13:43:25;8.57;;;4.97;;
11747;SDS011;5931;48.832;9.072;2023-04-29T13:45:51;7.20;;;5.63;;
11747;SDS011;5931;48.832;9.072;2023-04-29T13:48:16;8.60;;;5.30;;
11747;SDS011;5931;48.832;9.072;2023-04-29T13:50:43;5.53;;;3.93;;
11747;SDS011;5931;48.832;9.072;2023-04-29T13:53:09;6.73;;;4.90;;
11747;SDS011;5931;48.832;9.072;2023-04-29T13:55:35;7.43;;;5.57;;
11747;SDS011;5931;48.832;9.072;2023-04-29T13:58:01;7.33;;;4.50;;
11747;SDS011;5931;48.832;9.072;2023-04-29T14:00:27;6.97;;;4.40;;
11747;SDS011;5931;48.832;9.072;2023-04-29T14:02:53;8.90;;;4.87;;
11747;SDS011;5931;48.832;9.072;2023-04-29T14:05:19;7.03;;;4.70;;
11747;SDS011;5931;48.832;9.072;2023-04-29T14:07:45;9.63;;;5.40;;
11747;SDS011;5931;48.832;9.072;2023-04-29T14:10:10;5.77;;;4.10;;
11747;SDS011;5931;48.832;9.072;2023-04-29T14:12:36;8.03;;;5.20;;
11747;SDS011;5931;48.832;9.072;2023-04-29T14:15:02;7.30;;;4.73;;
11747;SDS011;5931;48.832;9.072;2023-04-29T14:17:28;7.67;;;5.00;;
11747;SDS011;5931;48.832;9.072;2023-04-29T14:19:53;8.47;;;4.83;;
11747;SDS011;5931;48.832;9.072;2023-04-29T14:22:19;6.80;;;4.50;;
11747;SDS011;5931;48.832;9.072;2023-04-29T14:24:45;7.47;;;4.93;;
11747;SDS011;5931;48.832;9.072;2023-04-29T14:27:11;9.03;;;5.40;;
11747;SDS011;5931;48.832;9.072;2023-04-29T14:29:36;9.20;;;5.87;;
11747;SDS011;5931;48.832;9.072;2023-04-29T14:32:02;11.23;;;5.10;;
11747;SDS011;5931;48.832;9.072;2023-04-29T14:34:28;9.33;;;5.30;;
11747;SDS011;5931;48.832;9.072;2023-04-29T14:36:54;7.37;;;4.50;;
11747;SDS011;5931;48.832;9.072;2023-04-29T14:39:23;8.67;;;5.30;;
11747;SDS011;5931;48.832;9.072;2023-04-29T14:41:50;7.87;;;5.10;;
11747;SDS011;5931;48.832;9.072;2023-04-29T14:44:16;5.57;;;4.70;;
11747;SDS011;5931;48.832;9.072;2023-04-29T14:46:42;7.77;;;3.93;;
11747;SDS011;5931;48.832;9.072;2023-04-29T14:49:08;5.13;;;4.40;;
11747;SDS011;5931;48.832;9.072;2023-04-29T14:51:34;7.53;;;4.80;;
11747;SDS011;5931;48.832;9.072;2023-04-29T14:53:59;9.37;;;4.80;;
11747;SDS011;5931;48.832;9.072;2023-04-29T14:56:25;8.70;;;4.90;;
11747;SDS011;5931;48.832;9.072;2023-04-29T14:58:51;7.47;;;4.93;;
11747;SDS011;5931;48.832;9.072;2023-04-29T15:01:17;8.43;;;5.03;;
11747;SDS011;5931;48.832;9.072;2023-04-29T15:03:42;9.77;;;5.53;;
11747;SDS011;5931;48.832;9.072;2023-04-29T15:06:08;8.77;;;5.57;;
11747;SDS011;5931;48.832;9.072;2023-04-29T15:08:34;10.03;;;5.70;;
11747;SDS011;5931;48.832;9.072;2023-04-29T15:11:00;8.83;;;5.93;;
11747;SDS011;5931;48.832;9.072;2023-04-29T15:13:25;6.90;;;4.20;;
11747;SDS011;5931;48.832;9.072;2023-04-29T15:15:51;8.53;;;5.33;;
11747;SDS011;5931;48.832;9.072;2023-04-29T15:18:16;8.93;;;4.70;;
11747;SDS011;5931;48.832;9.072;2023-04-29T15:20:42;6.83;;;4.70;;
11747;SDS011;5931;48.832;9.072;2023-04-29T15:23:08;9.00;;;5.13;;
11747;SDS011;5931;48.832;9.072;2023-04-29T15:25:33;7.10;;;4.33;;
11747;SDS011;5931;48.832;9.072;2023-04-29T15:28:00;8.03;;;5.60;;
11747;SDS011;5931;48.832;9.072;2023-04-29T15:30:26;11.23;;;4.97;;
11747;SDS011;5931;48.832;9.072;2023-04-29T15:32:53;8.70;;;5.87;;
11747;SDS011;5931;48.832;9.072;2023-04-29T15:35:19;9.77;;;4.73;;
11747;SDS011;5931;48.832;9.072;2023-04-29T15:37:45;8.37;;;5.17;;
11747;SDS011;5931;48.832;9.072;2023-04-29T15:40:10;4.73;;;3.70;;
11747;SDS011;5931;48.832;9.072;2023-04-29T15:42:36;8.90;;;4.53;;
11747;SDS011;5931;48.832;9.072;2023-04-29T15:45:02;10.10;;;4.60;;
11747;SDS011;5931;48.832;9.072;2023-04-29T15:47:28;5.43;;;4.23;;